createdAt,value
2024-02-29T00:01:13.807Z,17.43
2024-02-29T00:03:46.260Z,17.17
2024-02-29T00:06:18.261Z,19.42
2024-02-29T00:08:50.647Z,18.35
2024-02-29T00:11:22.723Z,17.45
2024-02-29T00:13:55.146Z,17.83
2024-02-29T00:16:27.120Z,17.70
2024-02-29T00:18:59.492Z,19.05
2024-02-29T00:21:31.699Z,17.63
2024-02-29T00:24:04.129Z,17.27
2024-02-29T00:26:36.096Z,17.23
2024-02-29T00:29:09.414Z,17.05
2024-02-29T00:31:45.479Z,17.88
2024-02-29T00:34:18.026Z,18.33
2024-02-29T00:36:50.061Z,18.48
2024-02-29T00:39:22.637Z,16.97
2024-02-29T00:41:54.601Z,19.20
2024-02-29T00:44:27.059Z,19.17
2024-02-29T00:47:00.020Z,18.50
2024-02-29T00:49:33.249Z,18.45
2024-02-29T00:52:05.385Z,17.20
2024-02-29T00:54:37.875Z,18.50
2024-02-29T00:57:09.873Z,18.58
2024-02-29T00:59:42.746Z,18.77
2024-02-29T01:02:14.765Z,17.98
2024-02-29T01:04:47.333Z,17.40
2024-02-29T01:07:21.150Z,16.95
2024-02-29T01:09:54.280Z,18.25
2024-02-29T01:12:27.231Z,16.50
2024-02-29T01:14:59.606Z,14.63
2024-02-29T01:17:31.599Z,15.10
2024-02-29T01:20:06.656Z,16.23
2024-02-29T01:22:39.009Z,15.25
2024-02-29T01:25:13.057Z,13.52
2024-02-29T01:27:45.124Z,14.88
2024-02-29T01:30:17.812Z,14.07
2024-02-29T01:32:49.828Z,14.23
2024-02-29T01:35:22.308Z,15.48
2024-02-29T01:37:54.292Z,14.48
2024-02-29T01:40:26.748Z,14.75
2024-02-29T01:42:58.869Z,13.90
2024-02-29T01:45:31.321Z,14.40
2024-02-29T01:48:04.084Z,14.55
2024-02-29T01:50:37.508Z,15.02
2024-02-29T01:53:09.570Z,14.52
2024-02-29T01:55:41.924Z,15.20
2024-02-29T01:58:14.472Z,14.93
2024-02-29T02:00:47.027Z,14.70
2024-02-29T02:03:20.160Z,15.20
2024-02-29T02:05:52.534Z,14.70
2024-02-29T02:08:27.938Z,15.03
2024-02-29T02:11:01.211Z,15.45
2024-02-29T02:13:33.300Z,14.60
2024-02-29T02:16:06.640Z,14.35
2024-02-29T02:18:39.089Z,15.45
2024-02-29T02:21:11.517Z,15.23
2024-02-29T02:23:43.933Z,14.40
2024-02-29T02:26:16.370Z,14.15
2024-02-29T02:28:48.353Z,14.90
2024-02-29T02:31:20.752Z,14.38
2024-02-29T02:33:52.720Z,14.83
2024-02-29T02:36:25.846Z,13.60
2024-02-29T02:38:57.800Z,17.23
2024-02-29T02:41:30.559Z,15.45
2024-02-29T02:44:02.582Z,15.73
2024-02-29T02:46:34.927Z,14.03
2024-02-29T02:49:07.532Z,14.10
2024-02-29T02:51:40.362Z,14.57
2024-02-29T02:54:12.797Z,13.13
2024-02-29T02:56:45.137Z,14.85
2024-02-29T02:59:18.590Z,14.43
2024-02-29T03:01:51.019Z,13.60
2024-02-29T03:04:22.958Z,13.93
2024-02-29T03:06:55.371Z,13.25
2024-02-29T03:09:27.413Z,13.57
2024-02-29T03:11:59.752Z,12.87
2024-02-29T03:14:31.732Z,13.80
2024-02-29T03:17:04.937Z,12.30
2024-02-29T03:19:37.063Z,13.65
2024-02-29T03:22:09.737Z,13.18
2024-02-29T03:24:44.383Z,13.67
2024-02-29T03:27:17.327Z,12.77
2024-02-29T03:29:49.289Z,14.18
2024-02-29T03:32:21.828Z,12.32
2024-02-29T03:34:53.800Z,12.45
2024-02-29T03:37:26.333Z,12.37
2024-02-29T03:39:58.311Z,13.77
2024-02-29T03:42:31.270Z,13.60
2024-02-29T03:45:03.858Z,12.35
2024-02-29T03:47:37.602Z,12.98
2024-02-29T03:50:13.273Z,12.53
2024-02-29T03:52:45.491Z,13.13
2024-02-29T03:55:17.625Z,12.75
2024-02-29T03:57:50.189Z,12.60
2024-02-29T04:00:22.308Z,12.50
2024-02-29T04:02:54.769Z,12.77
2024-02-29T04:05:27.165Z,11.80
2024-02-29T04:08:05.230Z,11.65
2024-02-29T04:10:37.398Z,11.65
2024-02-29T04:13:10.009Z,12.65
2024-02-29T04:15:42.380Z,11.37
2024-02-29T04:18:14.887Z,12.00
2024-02-29T04:20:47.007Z,11.90
2024-02-29T04:23:19.473Z,10.80
2024-02-29T04:25:51.420Z,11.35
2024-02-29T04:28:23.934Z,11.77
2024-02-29T04:30:55.991Z,11.77
2024-02-29T04:33:28.466Z,11.80
2024-02-29T04:36:00.881Z,10.65
2024-02-29T04:38:33.399Z,10.68
2024-02-29T04:41:05.410Z,10.40
2024-02-29T04:43:38.684Z,10.00
2024-02-29T04:46:10.746Z,10.50
2024-02-29T04:48:43.298Z,10.20
2024-02-29T04:51:15.228Z,11.32
2024-02-29T04:53:48.805Z,10.20
2024-02-29T04:56:20.823Z,11.00
2024-02-29T04:58:53.287Z,10.85
2024-02-29T05:01:25.285Z,10.13
2024-02-29T05:03:57.854Z,11.02
2024-02-29T05:06:30.298Z,10.67
2024-02-29T05:09:02.789Z,9.98
2024-02-29T05:11:37.282Z,11.35
2024-02-29T05:14:11.355Z,10.88
2024-02-29T05:16:43.265Z,11.38
2024-02-29T05:19:16.142Z,10.23
2024-02-29T05:21:48.490Z,11.23
2024-02-29T05:24:21.417Z,11.20
2024-02-29T05:26:53.356Z,11.05
2024-02-29T05:29:25.946Z,10.98
2024-02-29T05:31:58.708Z,10.33
2024-02-29T05:34:31.359Z,9.75
2024-02-29T05:37:03.473Z,11.10
2024-02-29T05:39:36.472Z,10.30
2024-02-29T05:42:08.530Z,10.63
2024-02-29T05:44:41.100Z,10.43
2024-02-29T05:47:13.424Z,11.10
2024-02-29T05:49:46.246Z,10.93
2024-02-29T05:52:20.869Z,10.85
2024-02-29T05:54:53.458Z,11.02
2024-02-29T05:57:31.670Z,10.10
2024-02-29T06:00:07.464Z,11.35
2024-02-29T06:02:46.993Z,11.10
2024-02-29T06:05:21.344Z,10.77
2024-02-29T06:07:53.409Z,11.23
2024-02-29T06:10:25.694Z,11.43
2024-02-29T06:12:58.164Z,11.23
2024-02-29T06:15:30.623Z,10.90
2024-02-29T06:18:02.871Z,11.80
2024-02-29T06:20:35.437Z,10.52
2024-02-29T06:23:07.517Z,11.40
2024-02-29T06:25:40.098Z,11.13
2024-02-29T06:28:12.137Z,11.52
2024-02-29T06:30:45.200Z,11.27
2024-02-29T06:33:17.201Z,11.75
2024-02-29T06:35:51.014Z,10.67
2024-02-29T06:38:23.408Z,10.40
2024-02-29T06:40:56.276Z,10.57
2024-02-29T06:43:30.654Z,10.55
2024-02-29T06:46:06.924Z,10.00
2024-02-29T06:48:40.248Z,9.87
2024-02-29T06:51:12.829Z,10.18
2024-02-29T06:53:44.809Z,10.70
2024-02-29T06:56:17.543Z,10.68
2024-02-29T06:58:50.175Z,10.45
2024-02-29T07:01:24.395Z,10.97
2024-02-29T07:03:57.683Z,10.82
2024-02-29T07:06:30.240Z,10.40
2024-02-29T07:09:02.516Z,11.38
2024-02-29T07:11:35.157Z,10.23
2024-02-29T07:14:07.397Z,10.43
2024-02-29T07:16:40.036Z,10.85
2024-02-29T07:19:12.175Z,11.07
2024-02-29T07:21:45.112Z,11.15
2024-02-29T07:24:17.123Z,10.27
2024-02-29T07:26:56.111Z,11.17
2024-02-29T07:29:28.510Z,10.27
2024-02-29T07:32:01.026Z,11.00
2024-02-29T07:34:35.269Z,10.52
2024-02-29T07:37:08.003Z,11.85
2024-02-29T07:39:40.015Z,11.10
2024-02-29T07:42:12.533Z,12.02
2024-02-29T07:44:44.543Z,10.75
2024-02-29T07:47:17.145Z,10.05
2024-02-29T07:49:49.164Z,11.40
2024-02-29T07:52:22.163Z,11.70
2024-02-29T07:54:54.695Z,12.30
2024-02-29T07:57:27.634Z,14.93
2024-02-29T07:59:59.879Z,15.10
2024-02-29T08:02:35.508Z,14.55
2024-02-29T08:05:08.033Z,14.50
2024-02-29T08:07:41.344Z,14.63
2024-02-29T08:10:17.025Z,14.63
2024-02-29T08:12:49.819Z,13.50
2024-02-29T08:15:21.990Z,14.93
2024-02-29T08:17:54.616Z,14.77
2024-02-29T08:20:27.148Z,14.48
2024-02-29T08:22:59.672Z,14.55
2024-02-29T08:25:31.944Z,14.13
2024-02-29T08:28:06.896Z,14.55
2024-02-29T08:30:39.335Z,13.90
2024-02-29T08:33:12.092Z,13.85
2024-02-29T08:35:44.139Z,14.02
2024-02-29T08:38:17.771Z,14.15
2024-02-29T08:40:50.353Z,13.82
2024-02-29T08:43:23.103Z,13.70
2024-02-29T08:45:55.123Z,13.50
2024-02-29T08:48:28.514Z,13.95
2024-02-29T08:51:00.475Z,14.45
2024-02-29T08:53:33.913Z,13.60
2024-02-29T08:56:05.997Z,13.47
2024-02-29T08:58:38.893Z,13.00
2024-02-29T09:01:11.221Z,13.48
2024-02-29T09:03:44.596Z,12.93
2024-02-29T09:06:17.566Z,12.45
2024-02-29T09:08:50.124Z,12.50
2024-02-29T09:11:22.533Z,11.45
2024-02-29T09:13:58.000Z,11.38
2024-02-29T09:16:30.860Z,11.00
2024-02-29T09:19:06.134Z,11.85
2024-02-29T09:21:38.260Z,11.57
2024-02-29T09:24:16.053Z,11.02
2024-02-29T09:26:48.546Z,12.23
2024-02-29T09:29:22.888Z,11.68
2024-02-29T09:31:56.212Z,11.95
2024-02-29T09:34:29.891Z,13.07
2024-02-29T09:37:02.686Z,12.68
2024-02-29T09:39:35.681Z,11.55
2024-02-29T09:42:13.931Z,11.50
2024-02-29T09:44:48.569Z,11.63
2024-02-29T09:47:22.103Z,11.07
2024-02-29T09:49:59.579Z,11.75
2024-02-29T09:52:39.659Z,12.60
2024-02-29T09:55:15.401Z,11.65
2024-02-29T09:57:47.692Z,12.35
2024-02-29T10:00:21.911Z,13.10
2024-02-29T10:02:56.057Z,12.68
2024-02-29T10:05:28.773Z,13.60
2024-02-29T10:08:03.294Z,13.45
2024-02-29T10:10:38.528Z,14.02
2024-02-29T10:13:10.766Z,12.80
2024-02-29T10:15:45.683Z,13.38
2024-02-29T10:18:17.826Z,13.20
2024-02-29T10:20:50.526Z,13.52
2024-02-29T10:23:22.681Z,13.40
2024-02-29T10:25:55.334Z,13.87
2024-02-29T10:28:28.754Z,13.40
2024-02-29T10:31:02.642Z,13.07
2024-02-29T10:33:39.905Z,12.35
2024-02-29T10:36:13.041Z,12.75
2024-02-29T10:38:45.172Z,13.23
2024-02-29T10:41:19.734Z,14.02
2024-02-29T10:43:52.762Z,14.00
2024-02-29T10:46:26.264Z,12.73
2024-02-29T10:49:08.284Z,14.13
2024-02-29T10:51:50.036Z,12.50
2024-02-29T10:54:33.843Z,12.32
2024-02-29T10:57:16.727Z,12.90
2024-02-29T10:59:55.237Z,13.98
2024-02-29T11:02:30.534Z,13.68
2024-02-29T11:05:04.407Z,12.80
2024-02-29T11:07:37.665Z,14.02
2024-02-29T11:10:10.574Z,12.60
2024-02-29T11:12:45.807Z,13.27
2024-02-29T11:15:27.065Z,12.70
2024-02-29T11:18:00.785Z,12.43
2024-02-29T11:20:35.010Z,13.00
2024-02-29T11:23:11.305Z,12.93
2024-02-29T11:25:44.386Z,13.38
2024-02-29T11:28:38.077Z,14.82
2024-02-29T11:31:48.046Z,13.77
2024-02-29T11:34:30.036Z,14.23
2024-02-29T11:37:07.265Z,15.18
2024-02-29T11:39:40.197Z,15.48
2024-02-29T11:42:15.412Z,14.88
2024-02-29T11:45:35.642Z,15.10
2024-02-29T11:48:34.290Z,15.63
2024-02-29T11:51:08.941Z,16.17
2024-02-29T11:53:41.797Z,14.95
2024-02-29T11:56:16.595Z,15.90
2024-02-29T11:58:51.139Z,14.10
2024-02-29T12:01:25.020Z,14.23
2024-02-29T12:03:57.768Z,14.45
2024-02-29T12:07:45.694Z,14.18
2024-02-29T12:10:15.335Z,14.45
2024-02-29T12:12:48.694Z,14.27
2024-02-29T12:15:21.410Z,14.05
2024-02-29T12:17:54.033Z,13.52
2024-02-29T12:20:26.901Z,12.90
2024-02-29T12:23:00.213Z,12.48
2024-02-29T12:25:32.554Z,12.90
2024-02-29T12:28:09.129Z,13.55
2024-02-29T12:30:50.031Z,12.68
2024-02-29T12:33:27.311Z,12.65
2024-02-29T12:36:01.931Z,12.75
2024-02-29T12:38:36.274Z,13.00
2024-02-29T12:41:08.702Z,12.63
2024-02-29T12:43:50.386Z,12.00
2024-02-29T12:46:28.760Z,11.13
2024-02-29T12:49:05.223Z,11.30
2024-02-29T12:51:37.823Z,11.80
2024-02-29T12:54:11.900Z,12.23
2024-02-29T12:56:47.763Z,11.63
2024-02-29T12:59:22.937Z,10.57
2024-02-29T13:02:01.644Z,11.57
2024-02-29T13:15:11.604Z,12.40
2024-02-29T13:17:44.539Z,11.07
2024-02-29T13:29:23.599Z,12.45
2024-02-29T13:32:00.560Z,11.93
2024-02-29T13:34:34.517Z,14.10
2024-02-29T13:37:09.456Z,14.23
2024-02-29T13:39:47.842Z,13.37
2024-02-29T13:42:33.542Z,13.15
2024-02-29T13:45:16.255Z,13.60
2024-02-29T13:47:59.426Z,13.45
2024-02-29T13:50:35.730Z,14.68
2024-02-29T13:53:24.557Z,13.83
2024-02-29T13:55:59.740Z,14.27
2024-02-29T13:58:35.219Z,13.52
2024-02-29T14:01:15.115Z,13.85
2024-02-29T14:03:49.902Z,14.18
2024-02-29T14:06:23.315Z,12.93
2024-02-29T14:09:01.493Z,14.18
2024-02-29T14:16:13.178Z,13.52
2024-02-29T14:19:39.133Z,13.98
2024-02-29T14:22:22.422Z,13.03
2024-02-29T14:24:59.965Z,13.60
2024-02-29T14:27:35.710Z,13.65
2024-02-29T14:30:11.416Z,13.30
2024-02-29T14:32:46.864Z,12.77
2024-02-29T14:35:19.955Z,13.23
2024-02-29T14:38:07.440Z,13.15
2024-02-29T14:41:36.617Z,13.60
2024-02-29T14:44:09.248Z,13.25
2024-02-29T14:46:51.856Z,12.77
2024-02-29T14:49:52.124Z,12.73
2024-02-29T14:55:47.372Z,12.75
2024-02-29T14:59:47.068Z,11.90
2024-02-29T15:03:25.947Z,13.00
2024-02-29T15:06:31.076Z,12.50
2024-02-29T15:09:06.825Z,13.25
2024-02-29T15:11:46.693Z,12.77
2024-02-29T15:20:07.460Z,13.53
2024-02-29T15:22:41.626Z,13.35
2024-02-29T15:25:17.430Z,13.80
2024-02-29T15:27:55.152Z,14.10
2024-02-29T15:30:28.614Z,13.77
2024-02-29T15:33:05.091Z,13.77
2024-02-29T15:35:38.372Z,14.15
2024-02-29T15:38:10.984Z,14.63
2024-02-29T15:40:47.852Z,12.55
2024-02-29T15:43:21.677Z,13.32
2024-02-29T15:45:54.723Z,13.13
2024-02-29T15:48:27.611Z,14.75
2024-02-29T15:51:01.046Z,13.95
2024-02-29T15:53:33.309Z,14.35
2024-02-29T15:56:07.449Z,14.30
2024-02-29T15:58:39.656Z,13.57
2024-02-29T16:01:12.454Z,13.57
2024-02-29T16:03:44.707Z,14.23
2024-02-29T16:06:20.912Z,13.20
2024-02-29T16:09:04.124Z,13.40
2024-02-29T16:11:36.933Z,15.00
2024-02-29T16:14:09.553Z,14.85
2024-02-29T16:19:30.692Z,15.23
2024-02-29T16:22:03.705Z,18.40
2024-02-29T16:27:25.660Z,19.35
2024-02-29T16:32:50.660Z,14.65
2024-02-29T16:35:23.865Z,15.10
2024-02-29T16:37:59.516Z,14.93
2024-02-29T16:40:40.182Z,14.55
2024-02-29T16:43:15.970Z,14.25
2024-02-29T16:45:49.785Z,14.23
2024-02-29T16:48:23.357Z,15.88
2024-02-29T16:50:57.576Z,14.87
2024-02-29T16:53:30.234Z,15.57
2024-02-29T16:56:03.046Z,15.35
2024-02-29T17:01:24.394Z,15.55
2024-02-29T17:04:01.618Z,15.57
2024-02-29T17:06:35.671Z,18.75
2024-02-29T17:09:09.793Z,16.23
2024-02-29T17:11:47.566Z,17.15
2024-02-29T17:14:23.436Z,18.02
2024-02-29T17:16:55.791Z,16.33
2024-02-29T17:19:29.395Z,16.52
2024-02-29T17:22:02.293Z,17.20
2024-02-29T17:24:39.050Z,16.05
2024-02-29T17:27:11.272Z,16.83
2024-02-29T17:29:44.933Z,16.33
2024-02-29T17:32:22.103Z,17.08
2024-02-29T17:34:55.585Z,16.45
2024-02-29T17:37:30.369Z,18.20
2024-02-29T17:40:03.858Z,16.10
2024-02-29T17:42:36.313Z,15.63
2024-02-29T17:45:11.083Z,14.43
2024-02-29T17:47:43.660Z,15.80
2024-02-29T17:50:21.000Z,15.15
2024-02-29T17:52:56.595Z,15.52
2024-02-29T17:55:30.097Z,14.53
2024-02-29T17:58:03.085Z,15.20
2024-02-29T18:00:37.655Z,16.25
2024-02-29T18:03:20.028Z,13.95
2024-02-29T18:06:18.588Z,13.52
2024-02-29T18:08:51.034Z,14.00
2024-02-29T18:11:27.031Z,13.63
2024-02-29T18:14:00.725Z,13.82
2024-02-29T18:16:34.709Z,14.82
2024-02-29T18:19:07.586Z,14.68
2024-02-29T18:21:46.539Z,13.37
2024-02-29T18:24:19.363Z,13.32
2024-02-29T18:26:51.558Z,13.90
2024-02-29T18:29:26.518Z,12.68
2024-02-29T18:31:58.909Z,13.20
2024-02-29T18:34:31.182Z,12.03
2024-02-29T18:37:04.371Z,14.93
2024-02-29T18:39:37.807Z,14.43
2024-02-29T18:42:10.390Z,12.65
2024-02-29T18:44:43.132Z,13.05
2024-02-29T18:47:19.676Z,12.37
2024-02-29T18:49:53.094Z,13.25
2024-02-29T18:52:33.482Z,14.13
2024-02-29T18:55:09.237Z,12.95
2024-02-29T18:57:41.913Z,13.45
2024-02-29T19:00:16.586Z,13.60
2024-02-29T19:02:49.504Z,13.93
2024-02-29T19:05:22.057Z,14.02
2024-02-29T19:07:54.569Z,13.77
2024-02-29T19:10:27.165Z,14.85
2024-02-29T19:12:59.212Z,15.07
2024-02-29T19:15:32.155Z,13.63
2024-02-29T19:18:04.656Z,14.95
2024-02-29T19:20:37.199Z,14.02
2024-02-29T19:23:10.692Z,13.55
2024-02-29T19:26:04.249Z,12.67
2024-02-29T19:28:39.029Z,12.25
2024-02-29T19:31:15.683Z,16.00
2024-02-29T19:33:48.482Z,14.88
2024-02-29T19:36:22.314Z,14.68
2024-02-29T19:38:57.736Z,14.13
2024-02-29T19:41:30.588Z,12.68
2024-02-29T19:44:02.816Z,13.82
2024-02-29T19:46:42.600Z,14.52
2024-02-29T19:49:14.724Z,14.07
2024-02-29T19:51:47.929Z,13.33
2024-02-29T19:54:20.031Z,13.25
2024-02-29T19:56:52.530Z,12.95
2024-02-29T19:59:24.514Z,12.05
2024-02-29T20:01:56.953Z,13.50
2024-02-29T20:04:30.789Z,12.30
2024-02-29T20:07:03.174Z,13.55
2024-02-29T20:09:35.648Z,13.30
2024-02-29T20:12:08.575Z,13.05
2024-02-29T20:14:42.550Z,14.15
2024-02-29T20:17:15.841Z,12.90
2024-02-29T20:19:48.359Z,14.45
2024-02-29T20:22:21.099Z,14.50
2024-02-29T20:24:54.617Z,15.00
2024-02-29T20:27:27.433Z,14.70
2024-02-29T20:29:59.481Z,15.40
2024-02-29T20:32:32.248Z,14.98
2024-02-29T20:35:04.871Z,15.27
2024-02-29T20:37:37.516Z,14.90
2024-02-29T20:40:10.310Z,16.30
2024-02-29T20:42:43.088Z,15.17
2024-02-29T20:45:17.561Z,15.18
2024-02-29T20:47:50.567Z,14.73
2024-02-29T20:50:23.498Z,15.13
2024-02-29T20:52:56.530Z,14.25
2024-02-29T20:55:35.931Z,14.40
2024-02-29T20:58:11.842Z,15.10
2024-02-29T21:00:44.367Z,14.27
2024-02-29T21:03:17.386Z,15.23
2024-02-29T21:05:49.520Z,15.23
2024-02-29T21:08:22.190Z,14.67
2024-02-29T21:10:54.254Z,14.50
2024-02-29T21:13:28.893Z,15.65
2024-02-29T21:16:01.709Z,15.68
2024-02-29T21:18:34.939Z,14.80
2024-02-29T21:21:06.942Z,15.23
2024-02-29T21:23:40.102Z,14.98
2024-02-29T21:26:12.114Z,15.75
2024-02-29T21:28:47.856Z,15.48
2024-02-29T21:31:20.134Z,15.77
2024-02-29T21:33:57.648Z,16.17
2024-02-29T21:36:30.152Z,13.90
2024-02-29T21:39:03.354Z,15.05
2024-02-29T21:41:36.766Z,15.40
2024-02-29T21:44:10.997Z,15.82
2024-02-29T21:46:43.470Z,16.47
2024-02-29T21:49:17.849Z,15.45
2024-02-29T21:51:50.078Z,16.00
2024-02-29T21:54:25.764Z,16.88
2024-02-29T21:56:58.223Z,15.52
2024-02-29T21:59:30.850Z,15.47
2024-02-29T22:02:03.545Z,15.98
2024-02-29T22:04:36.546Z,14.88
2024-02-29T22:07:08.629Z,14.77
2024-02-29T22:09:41.138Z,14.30
2024-02-29T22:12:13.175Z,14.67
2024-02-29T22:14:45.652Z,14.85
2024-02-29T22:17:17.606Z,15.40
2024-02-29T22:19:50.316Z,14.68
2024-02-29T22:22:22.778Z,14.95
2024-02-29T22:24:56.143Z,14.33
2024-02-29T22:27:28.574Z,14.48
2024-02-29T22:30:01.204Z,15.52
2024-02-29T22:32:33.848Z,15.13
2024-02-29T22:35:09.203Z,14.40
2024-02-29T22:37:41.322Z,14.77
2024-02-29T22:40:14.547Z,13.18
2024-02-29T22:42:46.727Z,15.18
2024-02-29T22:45:19.729Z,14.73
2024-02-29T22:47:51.779Z,13.55
2024-02-29T22:50:24.419Z,14.73
2024-02-29T22:52:56.387Z,14.95
2024-02-29T22:55:29.201Z,15.02
2024-02-29T22:58:01.552Z,14.90
2024-02-29T23:00:35.216Z,14.00
2024-02-29T23:03:08.041Z,14.00
2024-02-29T23:05:41.195Z,14.65
2024-02-29T23:08:13.180Z,13.93
2024-02-29T23:10:45.684Z,14.07
2024-02-29T23:13:17.856Z,13.05
2024-02-29T23:15:51.006Z,13.70
2024-02-29T23:18:23.048Z,14.23
2024-02-29T23:20:57.841Z,14.30
2024-02-29T23:23:29.842Z,14.85
2024-02-29T23:26:02.629Z,14.57
2024-02-29T23:28:34.697Z,13.17
2024-02-29T23:31:07.484Z,14.20
2024-02-29T23:33:39.606Z,14.23
2024-02-29T23:36:12.094Z,14.10
2024-02-29T23:38:44.026Z,13.90
2024-02-29T23:41:16.508Z,12.93
2024-02-29T23:43:48.528Z,13.25
2024-02-29T23:46:21.068Z,14.55
2024-02-29T23:48:53.094Z,14.23
2024-02-29T23:51:25.645Z,14.07
2024-02-29T23:53:57.600Z,13.03
2024-02-29T23:56:30.070Z,12.30
2024-02-29T23:59:02.069Z,12.25
